sensor_id;sensor_type;location;lat;lon;timestamp;P1;durP1;ratioP1;P2;durP2;ratioP2
938;SDS011;456;53.584;9.968;2022-12-29T00:02:08;1.40;;;1.30;;
938;SDS011;456;53.584;9.968;2022-12-29T00:04:34;1.77;;;1.30;;
938;SDS011;456;53.584;9.968;2022-12-29T00:07:00;1.27;;;1.17;;
938;SDS011;456;53.584;9.968;2022-12-29T00:09:25;3.00;;;1.70;;
938;SDS011;456;53.584;9.968;2022-12-29T00:11:51;1.97;;;1.20;;
938;SDS011;456;53.584;9.968;2022-12-29T00:14:17;1.63;;;1.53;;
938;SDS011;456;53.584;9.968;2022-12-29T00:17:03;1.63;;;1.10;;
938;SDS011;456;53.584;9.968;2022-12-29T00:19:28;1.23;;;1.13;;
938;SDS011;456;53.584;9.968;2022-12-29T00:22:13;1.33;;;1.23;;
938;SDS011;456;53.584;9.968;2022-12-29T00:24:58;1.63;;;1.20;;
938;SDS011;456;53.584;9.968;2022-12-29T00:27:31;1.63;;;1.53;;
938;SDS011;456;53.584;9.968;2022-12-29T00:30:16;1.40;;;1.30;;
938;SDS011;456;53.584;9.968;2022-12-29T00:33:12;1.77;;;1.53;;
938;SDS011;456;53.584;9.968;2022-12-29T00:36:06;1.87;;;1.20;;
938;SDS011;456;53.584;9.968;2022-12-29T00:38:37;1.47;;;1.20;;
938;SDS011;456;53.584;9.968;2022-12-29T00:41:41;1.53;;;1.43;;
938;SDS011;456;53.584;9.968;2022-12-29T00:44:25;1.50;;;1.40;;
938;SDS011;456;53.584;9.968;2022-12-29T00:46:51;1.47;;;1.20;;
938;SDS011;456;53.584;9.968;2022-12-29T00:49:16;1.23;;;1.13;;
938;SDS011;456;53.584;9.968;2022-12-29T00:52:07;2.00;;;1.30;;
938;SDS011;456;53.584;9.968;2022-12-29T00:54:38;1.30;;;1.20;;
938;SDS011;456;53.584;9.968;2022-12-29T00:57:04;2.10;;;1.37;;
938;SDS011;456;53.584;9.968;2022-12-29T00:59:32;1.30;;;1.20;;
938;SDS011;456;53.584;9.968;2022-12-29T01:01:59;1.10;;;1.00;;
938;SDS011;456;53.584;9.968;2022-12-29T01:04:25;2.10;;;1.30;;
938;SDS011;456;53.584;9.968;2022-12-29T01:06:51;1.30;;;1.20;;
938;SDS011;456;53.584;9.968;2022-12-29T01:09:17;1.60;;;1.47;;
938;SDS011;456;53.584;9.968;2022-12-29T01:12:03;1.20;;;1.10;;
938;SDS011;456;53.584;9.968;2022-12-29T01:14:29;2.63;;;1.33;;
938;SDS011;456;53.584;9.968;2022-12-29T01:16:55;1.30;;;1.00;;
938;SDS011;456;53.584;9.968;2022-12-29T01:19:21;1.50;;;1.40;;
938;SDS011;456;53.584;9.968;2022-12-29T01:21:47;1.20;;;1.10;;
938;SDS011;456;53.584;9.968;2022-12-29T01:24:14;1.30;;;1.20;;
938;SDS011;456;53.584;9.968;2022-12-29T01:26:41;1.63;;;1.53;;
938;SDS011;456;53.584;9.968;2022-12-29T01:29:07;1.20;;;1.10;;
938;SDS011;456;53.584;9.968;2022-12-29T01:31:33;1.07;;;0.97;;
938;SDS011;456;53.584;9.968;2022-12-29T01:33:59;2.30;;;1.43;;
938;SDS011;456;53.584;9.968;2022-12-29T01:36:24;1.47;;;1.37;;
938;SDS011;456;53.584;9.968;2022-12-29T01:38:50;1.33;;;1.00;;
938;SDS011;456;53.584;9.968;2022-12-29T01:41:16;1.00;;;1.00;;
938;SDS011;456;53.584;9.968;2022-12-29T01:46:51;1.27;;;1.17;;
938;SDS011;456;53.584;9.968;2022-12-29T01:49:09;2.00;;;1.43;;
938;SDS011;456;53.584;9.968;2022-12-29T01:51:42;1.27;;;1.17;;
938;SDS011;456;53.584;9.968;2022-12-29T01:54:16;1.30;;;1.20;;
938;SDS011;456;53.584;9.968;2022-12-29T01:56:56;3.20;;;1.40;;
938;SDS011;456;53.584;9.968;2022-12-29T01:59:28;1.23;;;1.13;;
938;SDS011;456;53.584;9.968;2022-12-29T02:01:57;1.00;;;1.00;;
938;SDS011;456;53.584;9.968;2022-12-29T02:04:24;1.27;;;1.17;;
938;SDS011;456;53.584;9.968;2022-12-29T02:06:52;1.10;;;1.00;;
938;SDS011;456;53.584;9.968;2022-12-29T02:09:20;1.23;;;1.13;;
938;SDS011;456;53.584;9.968;2022-12-29T02:11:46;1.50;;;1.10;;
938;SDS011;456;53.584;9.968;2022-12-29T02:14:13;1.20;;;1.10;;
938;SDS011;456;53.584;9.968;2022-12-29T02:16:52;1.50;;;1.40;;
938;SDS011;456;53.584;9.968;2022-12-29T02:22:33;1.23;;;1.07;;
938;SDS011;456;53.584;9.968;2022-12-29T02:25:19;1.83;;;1.50;;
938;SDS011;456;53.584;9.968;2022-12-29T02:27:53;1.20;;;1.10;;
938;SDS011;456;53.584;9.968;2022-12-29T02:30:38;1.40;;;1.30;;
938;SDS011;456;53.584;9.968;2022-12-29T02:35:54;1.20;;;1.10;;
938;SDS011;456;53.584;9.968;2022-12-29T02:41:32;1.27;;;1.07;;
938;SDS011;456;53.584;9.968;2022-12-29T02:44:19;1.40;;;1.30;;
938;SDS011;456;53.584;9.968;2022-12-29T02:47:05;1.30;;;1.20;;
938;SDS011;456;53.584;9.968;2022-12-29T02:52:59;1.40;;;1.30;;
938;SDS011;456;53.584;9.968;2022-12-29T02:55:27;1.47;;;1.07;;
938;SDS011;456;53.584;9.968;2022-12-29T03:00:50;1.10;;;1.00;;
938;SDS011;456;53.584;9.968;2022-12-29T03:03:51;1.40;;;1.23;;
938;SDS011;456;53.584;9.968;2022-12-29T03:15:18;1.40;;;1.30;;
938;SDS011;456;53.584;9.968;2022-12-29T03:18:10;2.13;;;1.00;;
938;SDS011;456;53.584;9.968;2022-12-29T03:20:47;1.27;;;1.00;;
938;SDS011;456;53.584;9.968;2022-12-29T03:23:18;1.17;;;1.07;;
938;SDS011;456;53.584;9.968;2022-12-29T03:25:48;2.93;;;1.00;;
938;SDS011;456;53.584;9.968;2022-12-29T03:28:20;1.00;;;1.00;;
938;SDS011;456;53.584;9.968;2022-12-29T03:30:48;1.80;;;1.10;;
938;SDS011;456;53.584;9.968;2022-12-29T03:33:18;1.10;;;1.00;;
938;SDS011;456;53.584;9.968;2022-12-29T03:35:49;1.30;;;1.10;;
938;SDS011;456;53.584;9.968;2022-12-29T03:38:28;1.33;;;1.20;;
938;SDS011;456;53.584;9.968;2022-12-29T03:41:20;0.80;;;0.80;;
938;SDS011;456;53.584;9.968;2022-12-29T03:43:50;1.20;;;1.10;;
938;SDS011;456;53.584;9.968;2022-12-29T03:46:16;0.93;;;0.90;;
938;SDS011;456;53.584;9.968;2022-12-29T03:48:41;1.47;;;1.37;;
938;SDS011;456;53.584;9.968;2022-12-29T03:51:07;1.30;;;1.20;;
938;SDS011;456;53.584;9.968;2022-12-29T03:53:32;2.13;;;1.20;;
938;SDS011;456;53.584;9.968;2022-12-29T03:55:58;1.67;;;1.20;;
938;SDS011;456;53.584;9.968;2022-12-29T03:58:23;1.67;;;1.10;;
938;SDS011;456;53.584;9.968;2022-12-29T04:00:49;1.20;;;1.10;;
938;SDS011;456;53.584;9.968;2022-12-29T04:03:14;1.30;;;1.20;;
938;SDS011;456;53.584;9.968;2022-12-29T04:05:40;1.20;;;1.10;;
938;SDS011;456;53.584;9.968;2022-12-29T04:08:05;1.50;;;1.40;;
938;SDS011;456;53.584;9.968;2022-12-29T04:10:31;1.30;;;1.10;;
938;SDS011;456;53.584;9.968;2022-12-29T04:12:56;1.53;;;1.00;;
938;SDS011;456;53.584;9.968;2022-12-29T04:15:22;1.47;;;1.10;;
938;SDS011;456;53.584;9.968;2022-12-29T04:17:49;1.27;;;1.17;;
938;SDS011;456;53.584;9.968;2022-12-29T04:20:14;1.40;;;1.27;;
938;SDS011;456;53.584;9.968;2022-12-29T04:22:59;1.10;;;1.00;;
938;SDS011;456;53.584;9.968;2022-12-29T04:25:26;1.03;;;0.90;;
938;SDS011;456;53.584;9.968;2022-12-29T04:27:51;1.10;;;1.00;;
938;SDS011;456;53.584;9.968;2022-12-29T04:30:17;1.90;;;0.90;;
938;SDS011;456;53.584;9.968;2022-12-29T04:32:42;1.47;;;0.80;;
938;SDS011;456;53.584;9.968;2022-12-29T04:35:08;0.70;;;0.70;;
938;SDS011;456;53.584;9.968;2022-12-29T04:37:33;0.93;;;0.83;;
938;SDS011;456;53.584;9.968;2022-12-29T04:39:59;1.70;;;1.00;;
938;SDS011;456;53.584;9.968;2022-12-29T04:42:25;0.90;;;0.80;;
938;SDS011;456;53.584;9.968;2022-12-29T04:44:50;1.00;;;0.80;;
938;SDS011;456;53.584;9.968;2022-12-29T04:47:16;0.90;;;0.80;;
938;SDS011;456;53.584;9.968;2022-12-29T04:49:41;1.63;;;0.90;;
938;SDS011;456;53.584;9.968;2022-12-29T04:52:07;0.70;;;0.70;;
938;SDS011;456;53.584;9.968;2022-12-29T04:54:33;1.40;;;0.80;;
938;SDS011;456;53.584;9.968;2022-12-29T04:56:59;0.97;;;0.80;;
938;SDS011;456;53.584;9.968;2022-12-29T04:59:24;0.90;;;0.83;;
938;SDS011;456;53.584;9.968;2022-12-29T05:01:50;0.83;;;0.70;;
938;SDS011;456;53.584;9.968;2022-12-29T05:04:15;0.83;;;0.80;;
938;SDS011;456;53.584;9.968;2022-12-29T05:06:41;0.93;;;0.83;;
938;SDS011;456;53.584;9.968;2022-12-29T05:09:06;0.97;;;0.83;;
938;SDS011;456;53.584;9.968;2022-12-29T05:11:32;1.23;;;0.73;;
938;SDS011;456;53.584;9.968;2022-12-29T05:13:57;1.17;;;0.80;;
938;SDS011;456;53.584;9.968;2022-12-29T05:16:23;1.30;;;0.83;;
938;SDS011;456;53.584;9.968;2022-12-29T05:18:49;0.90;;;0.70;;
938;SDS011;456;53.584;9.968;2022-12-29T05:21:14;0.73;;;0.73;;
938;SDS011;456;53.584;9.968;2022-12-29T05:23:40;0.70;;;0.60;;
938;SDS011;456;53.584;9.968;2022-12-29T05:26:05;0.80;;;0.80;;
938;SDS011;456;53.584;9.968;2022-12-29T05:28:31;0.80;;;0.80;;
938;SDS011;456;53.584;9.968;2022-12-29T05:30:56;1.10;;;1.00;;
938;SDS011;456;53.584;9.968;2022-12-29T05:33:22;1.03;;;0.77;;
938;SDS011;456;53.584;9.968;2022-12-29T05:35:48;0.90;;;0.80;;
938;SDS011;456;53.584;9.968;2022-12-29T05:38:13;0.90;;;0.80;;
938;SDS011;456;53.584;9.968;2022-12-29T05:40:39;0.80;;;0.60;;
938;SDS011;456;53.584;9.968;2022-12-29T05:43:04;1.00;;;0.80;;
938;SDS011;456;53.584;9.968;2022-12-29T05:45:30;0.70;;;0.60;;
938;SDS011;456;53.584;9.968;2022-12-29T05:47:55;1.37;;;0.80;;
938;SDS011;456;53.584;9.968;2022-12-29T05:50:21;0.90;;;0.70;;
938;SDS011;456;53.584;9.968;2022-12-29T05:52:46;1.43;;;0.77;;
938;SDS011;456;53.584;9.968;2022-12-29T05:55:12;0.70;;;0.60;;
938;SDS011;456;53.584;9.968;2022-12-29T05:57:38;0.80;;;0.70;;
938;SDS011;456;53.584;9.968;2022-12-29T06:00:04;0.87;;;0.77;;
938;SDS011;456;53.584;9.968;2022-12-29T06:02:30;0.90;;;0.70;;
938;SDS011;456;53.584;9.968;2022-12-29T06:04:56;1.10;;;0.80;;
938;SDS011;456;53.584;9.968;2022-12-29T06:07:22;0.80;;;0.57;;
938;SDS011;456;53.584;9.968;2022-12-29T06:09:47;0.90;;;0.70;;
938;SDS011;456;53.584;9.968;2022-12-29T06:12:13;1.20;;;0.83;;
938;SDS011;456;53.584;9.968;2022-12-29T06:14:38;0.70;;;0.60;;
938;SDS011;456;53.584;9.968;2022-12-29T06:17:04;1.20;;;0.90;;
938;SDS011;456;53.584;9.968;2022-12-29T06:19:29;0.90;;;0.67;;
938;SDS011;456;53.584;9.968;2022-12-29T06:21:55;0.90;;;0.80;;
938;SDS011;456;53.584;9.968;2022-12-29T06:24:21;0.70;;;0.70;;
938;SDS011;456;53.584;9.968;2022-12-29T06:26:46;0.93;;;0.63;;
938;SDS011;456;53.584;9.968;2022-12-29T06:29:12;0.83;;;0.60;;
938;SDS011;456;53.584;9.968;2022-12-29T06:31:41;1.47;;;0.60;;
938;SDS011;456;53.584;9.968;2022-12-29T06:34:08;0.80;;;0.60;;
938;SDS011;456;53.584;9.968;2022-12-29T06:36:34;0.80;;;0.80;;
938;SDS011;456;53.584;9.968;2022-12-29T06:38:59;1.33;;;0.70;;
938;SDS011;456;53.584;9.968;2022-12-29T06:41:25;0.80;;;0.60;;
938;SDS011;456;53.584;9.968;2022-12-29T06:43:50;1.10;;;0.70;;
938;SDS011;456;53.584;9.968;2022-12-29T06:46:16;0.70;;;0.57;;
938;SDS011;456;53.584;9.968;2022-12-29T06:48:42;1.00;;;0.63;;
938;SDS011;456;53.584;9.968;2022-12-29T06:51:08;0.70;;;0.60;;
938;SDS011;456;53.584;9.968;2022-12-29T06:53:33;0.70;;;0.60;;
938;SDS011;456;53.584;9.968;2022-12-29T06:55:59;1.10;;;0.70;;
938;SDS011;456;53.584;9.968;2022-12-29T06:58:25;0.97;;;0.70;;
938;SDS011;456;53.584;9.968;2022-12-29T07:00:50;0.70;;;0.70;;
938;SDS011;456;53.584;9.968;2022-12-29T07:03:16;1.07;;;0.80;;
938;SDS011;456;53.584;9.968;2022-12-29T07:05:41;0.70;;;0.70;;
938;SDS011;456;53.584;9.968;2022-12-29T07:08:07;0.70;;;0.70;;
938;SDS011;456;53.584;9.968;2022-12-29T07:10:33;1.07;;;0.70;;
938;SDS011;456;53.584;9.968;2022-12-29T07:12:58;0.93;;;0.83;;
938;SDS011;456;53.584;9.968;2022-12-29T07:15:24;1.13;;;1.00;;
938;SDS011;456;53.584;9.968;2022-12-29T07:17:49;0.80;;;0.70;;
938;SDS011;456;53.584;9.968;2022-12-29T07:20:15;0.90;;;0.73;;
938;SDS011;456;53.584;9.968;2022-12-29T07:22:41;0.80;;;0.80;;
938;SDS011;456;53.584;9.968;2022-12-29T07:25:07;0.90;;;0.80;;
938;SDS011;456;53.584;9.968;2022-12-29T07:27:33;0.70;;;0.63;;
938;SDS011;456;53.584;9.968;2022-12-29T07:29:58;1.00;;;0.90;;
938;SDS011;456;53.584;9.968;2022-12-29T07:32:24;0.77;;;0.70;;
938;SDS011;456;53.584;9.968;2022-12-29T07:34:49;1.47;;;0.87;;
938;SDS011;456;53.584;9.968;2022-12-29T07:37:15;0.80;;;0.70;;
938;SDS011;456;53.584;9.968;2022-12-29T07:39:41;0.90;;;0.80;;
938;SDS011;456;53.584;9.968;2022-12-29T07:42:06;1.37;;;1.00;;
938;SDS011;456;53.584;9.968;2022-12-29T07:44:32;0.93;;;0.70;;
938;SDS011;456;53.584;9.968;2022-12-29T07:46:58;0.93;;;0.83;;
938;SDS011;456;53.584;9.968;2022-12-29T07:49:23;1.00;;;0.90;;
938;SDS011;456;53.584;9.968;2022-12-29T07:51:49;1.27;;;0.93;;
938;SDS011;456;53.584;9.968;2022-12-29T07:54:14;0.87;;;0.70;;
938;SDS011;456;53.584;9.968;2022-12-29T07:56:43;1.30;;;0.70;;
938;SDS011;456;53.584;9.968;2022-12-29T07:59:09;0.97;;;0.83;;
938;SDS011;456;53.584;9.968;2022-12-29T08:01:34;1.00;;;0.90;;
938;SDS011;456;53.584;9.968;2022-12-29T08:04:01;1.47;;;1.00;;
938;SDS011;456;53.584;9.968;2022-12-29T08:06:27;1.60;;;1.00;;
938;SDS011;456;53.584;9.968;2022-12-29T08:08:54;2.00;;;1.13;;
938;SDS011;456;53.584;9.968;2022-12-29T08:11:21;1.60;;;1.30;;
938;SDS011;456;53.584;9.968;2022-12-29T08:13:47;1.33;;;1.10;;
938;SDS011;456;53.584;9.968;2022-12-29T08:16:12;2.20;;;1.40;;
938;SDS011;456;53.584;9.968;2022-12-29T08:18:38;1.27;;;1.17;;
938;SDS011;456;53.584;9.968;2022-12-29T08:21:04;1.20;;;1.10;;
938;SDS011;456;53.584;9.968;2022-12-29T08:23:30;1.70;;;1.40;;
938;SDS011;456;53.584;9.968;2022-12-29T08:25:57;2.40;;;1.67;;
938;SDS011;456;53.584;9.968;2022-12-29T08:28:28;1.70;;;1.60;;
938;SDS011;456;53.584;9.968;2022-12-29T08:30:56;1.50;;;1.40;;
938;SDS011;456;53.584;9.968;2022-12-29T08:33:22;1.43;;;1.27;;
938;SDS011;456;53.584;9.968;2022-12-29T08:35:48;2.33;;;1.90;;
938;SDS011;456;53.584;9.968;2022-12-29T08:38:14;1.27;;;1.17;;
938;SDS011;456;53.584;9.968;2022-12-29T08:40:39;1.40;;;1.30;;
938;SDS011;456;53.584;9.968;2022-12-29T08:43:06;1.57;;;1.47;;
938;SDS011;456;53.584;9.968;2022-12-29T08:45:32;1.57;;;1.20;;
938;SDS011;456;53.584;9.968;2022-12-29T08:47:57;1.30;;;1.20;;
938;SDS011;456;53.584;9.968;2022-12-29T08:50:23;1.90;;;1.50;;
938;SDS011;456;53.584;9.968;2022-12-29T08:52:48;1.60;;;1.47;;
938;SDS011;456;53.584;9.968;2022-12-29T08:55:14;1.60;;;1.23;;
938;SDS011;456;53.584;9.968;2022-12-29T08:57:40;2.17;;;1.43;;
938;SDS011;456;53.584;9.968;2022-12-29T09:00:05;1.20;;;1.10;;
938;SDS011;456;53.584;9.968;2022-12-29T09:02:32;1.27;;;1.17;;
938;SDS011;456;53.584;9.968;2022-12-29T09:04:57;3.53;;;1.60;;
938;SDS011;456;53.584;9.968;2022-12-29T09:07:24;4.20;;;1.73;;
938;SDS011;456;53.584;9.968;2022-12-29T09:09:49;4.27;;;1.93;;
938;SDS011;456;53.584;9.968;2022-12-29T09:12:16;2.63;;;1.83;;
938;SDS011;456;53.584;9.968;2022-12-29T09:14:42;2.83;;;1.70;;
938;SDS011;456;53.584;9.968;2022-12-29T09:17:09;4.20;;;2.23;;
938;SDS011;456;53.584;9.968;2022-12-29T09:19:53;3.27;;;1.90;;
938;SDS011;456;53.584;9.968;2022-12-29T09:22:20;6.13;;;2.60;;
938;SDS011;456;53.584;9.968;2022-12-29T09:24:45;5.80;;;2.13;;
938;SDS011;456;53.584;9.968;2022-12-29T09:27:11;5.17;;;2.00;;
938;SDS011;456;53.584;9.968;2022-12-29T09:29:36;10.13;;;2.57;;
938;SDS011;456;53.584;9.968;2022-12-29T09:32:02;3.10;;;1.77;;
938;SDS011;456;53.584;9.968;2022-12-29T09:34:28;6.07;;;2.00;;
938;SDS011;456;53.584;9.968;2022-12-29T09:36:53;4.07;;;2.20;;
938;SDS011;456;53.584;9.968;2022-12-29T09:39:21;3.90;;;1.60;;
938;SDS011;456;53.584;9.968;2022-12-29T09:41:59;3.80;;;2.00;;
938;SDS011;456;53.584;9.968;2022-12-29T09:47:30;3.33;;;1.70;;
938;SDS011;456;53.584;9.968;2022-12-29T09:49:58;3.60;;;1.70;;
938;SDS011;456;53.584;9.968;2022-12-29T09:52:43;2.23;;;1.50;;
938;SDS011;456;53.584;9.968;2022-12-29T09:55:16;4.57;;;1.60;;
938;SDS011;456;53.584;9.968;2022-12-29T09:57:47;1.40;;;1.20;;
938;SDS011;456;53.584;9.968;2022-12-29T10:00:18;3.93;;;1.67;;
938;SDS011;456;53.584;9.968;2022-12-29T10:02:46;2.90;;;1.40;;
938;SDS011;456;53.584;9.968;2022-12-29T10:10:40;3.53;;;1.23;;
938;SDS011;456;53.584;9.968;2022-12-29T10:24:07;1.17;;;1.00;;
938;SDS011;456;53.584;9.968;2022-12-29T10:26:38;3.10;;;1.23;;
938;SDS011;456;53.584;9.968;2022-12-29T10:29:06;2.50;;;1.27;;
938;SDS011;456;53.584;9.968;2022-12-29T10:31:43;1.93;;;1.20;;
938;SDS011;456;53.584;9.968;2022-12-29T10:36:47;2.00;;;1.40;;
938;SDS011;456;53.584;9.968;2022-12-29T10:42:35;1.13;;;1.03;;
938;SDS011;456;53.584;9.968;2022-12-29T10:45:05;3.80;;;1.37;;
938;SDS011;456;53.584;9.968;2022-12-29T10:47:38;2.37;;;1.40;;
938;SDS011;456;53.584;9.968;2022-12-29T10:50:12;3.20;;;1.30;;
938;SDS011;456;53.584;9.968;2022-12-29T10:52:38;3.60;;;1.40;;
938;SDS011;456;53.584;9.968;2022-12-29T10:55:08;1.80;;;1.17;;
938;SDS011;456;53.584;9.968;2022-12-29T10:57:44;1.40;;;1.00;;
938;SDS011;456;53.584;9.968;2022-12-29T11:00:18;2.50;;;1.23;;
938;SDS011;456;53.584;9.968;2022-12-29T11:08:09;3.10;;;1.77;;
938;SDS011;456;53.584;9.968;2022-12-29T11:10:39;4.00;;;2.27;;
938;SDS011;456;53.584;9.968;2022-12-29T11:13:25;4.23;;;2.40;;
938;SDS011;456;53.584;9.968;2022-12-29T11:15:52;5.00;;;2.20;;
938;SDS011;456;53.584;9.968;2022-12-29T11:18:18;3.17;;;2.03;;
938;SDS011;456;53.584;9.968;2022-12-29T11:20:59;3.00;;;2.20;;
938;SDS011;456;53.584;9.968;2022-12-29T11:26:06;3.23;;;1.93;;
938;SDS011;456;53.584;9.968;2022-12-29T11:28:38;3.17;;;1.83;;
938;SDS011;456;53.584;9.968;2022-12-29T11:31:05;3.83;;;2.17;;
938;SDS011;456;53.584;9.968;2022-12-29T11:33:32;2.80;;;1.93;;
938;SDS011;456;53.584;9.968;2022-12-29T11:36:04;2.40;;;1.70;;
938;SDS011;456;53.584;9.968;2022-12-29T11:38:34;3.00;;;1.60;;
938;SDS011;456;53.584;9.968;2022-12-29T11:41:23;2.50;;;1.60;;
938;SDS011;456;53.584;9.968;2022-12-29T11:43:52;2.10;;;1.90;;
938;SDS011;456;53.584;9.968;2022-12-29T11:46:24;2.00;;;1.80;;
938;SDS011;456;53.584;9.968;2022-12-29T11:48:53;3.10;;;2.07;;
938;SDS011;456;53.584;9.968;2022-12-29T11:51:23;1.90;;;1.50;;
938;SDS011;456;53.584;9.968;2022-12-29T11:53:55;2.90;;;1.30;;
938;SDS011;456;53.584;9.968;2022-12-29T11:56:33;6.00;;;1.83;;
938;SDS011;456;53.584;9.968;2022-12-29T12:01:59;3.23;;;1.73;;
938;SDS011;456;53.584;9.968;2022-12-29T12:04:29;2.83;;;1.83;;
938;SDS011;456;53.584;9.968;2022-12-29T12:09:58;2.03;;;1.50;;
938;SDS011;456;53.584;9.968;2022-12-29T12:12:28;1.80;;;1.30;;
938;SDS011;456;53.584;9.968;2022-12-29T12:14:56;1.77;;;1.67;;
938;SDS011;456;53.584;9.968;2022-12-29T12:17:29;2.07;;;1.03;;
938;SDS011;456;53.584;9.968;2022-12-29T12:22:49;2.90;;;1.50;;
938;SDS011;456;53.584;9.968;2022-12-29T12:25:31;1.97;;;1.53;;
938;SDS011;456;53.584;9.968;2022-12-29T12:30:51;1.60;;;1.40;;
938;SDS011;456;53.584;9.968;2022-12-29T12:36:22;2.50;;;1.50;;
938;SDS011;456;53.584;9.968;2022-12-29T12:39:04;1.33;;;1.20;;
938;SDS011;456;53.584;9.968;2022-12-29T12:41:50;3.50;;;1.63;;
938;SDS011;456;53.584;9.968;2022-12-29T12:47:49;2.27;;;1.30;;
938;SDS011;456;53.584;9.968;2022-12-29T12:50:32;1.77;;;1.30;;
938;SDS011;456;53.584;9.968;2022-12-29T12:53:11;2.50;;;1.27;;
938;SDS011;456;53.584;9.968;2022-12-29T13:01:56;2.27;;;1.20;;
938;SDS011;456;53.584;9.968;2022-12-29T13:04:47;1.70;;;1.20;;
938;SDS011;456;53.584;9.968;2022-12-29T13:07:32;3.40;;;1.33;;
938;SDS011;456;53.584;9.968;2022-12-29T13:15:58;1.63;;;1.20;;
938;SDS011;456;53.584;9.968;2022-12-29T13:21:40;2.03;;;1.30;;
938;SDS011;456;53.584;9.968;2022-12-29T13:30:10;1.50;;;1.10;;
938;SDS011;456;53.584;9.968;2022-12-29T13:35:27;1.23;;;1.03;;
938;SDS011;456;53.584;9.968;2022-12-29T13:38:09;1.83;;;1.30;;
938;SDS011;456;53.584;9.968;2022-12-29T13:40:37;2.50;;;1.27;;
938;SDS011;456;53.584;9.968;2022-12-29T13:43:06;4.73;;;1.40;;
938;SDS011;456;53.584;9.968;2022-12-29T13:45:33;1.77;;;1.40;;
938;SDS011;456;53.584;9.968;2022-12-29T13:48:02;2.67;;;1.00;;
938;SDS011;456;53.584;9.968;2022-12-29T13:50:51;2.63;;;1.27;;
938;SDS011;456;53.584;9.968;2022-12-29T13:56:14;1.70;;;0.93;;
938;SDS011;456;53.584;9.968;2022-12-29T13:59:05;1.70;;;1.17;;
938;SDS011;456;53.584;9.968;2022-12-29T14:04:14;2.93;;;1.00;;
938;SDS011;456;53.584;9.968;2022-12-29T14:07:01;2.07;;;1.00;;
938;SDS011;456;53.584;9.968;2022-12-29T14:12:20;1.90;;;1.00;;
938;SDS011;456;53.584;9.968;2022-12-29T14:18:03;2.23;;;1.10;;
938;SDS011;456;53.584;9.968;2022-12-29T14:20:38;3.57;;;1.13;;
938;SDS011;456;53.584;9.968;2022-12-29T14:23:15;2.07;;;1.23;;
938;SDS011;456;53.584;9.968;2022-12-29T14:31:05;1.30;;;0.90;;
938;SDS011;456;53.584;9.968;2022-12-29T14:36:38;2.00;;;1.50;;
938;SDS011;456;53.584;9.968;2022-12-29T14:44:51;1.13;;;0.80;;
938;SDS011;456;53.584;9.968;2022-12-29T14:47:22;1.33;;;0.80;;
938;SDS011;456;53.584;9.968;2022-12-29T14:49:57;1.93;;;1.27;;
938;SDS011;456;53.584;9.968;2022-12-29T14:55:38;2.20;;;1.17;;
938;SDS011;456;53.584;9.968;2022-12-29T14:58:16;0.90;;;0.70;;
938;SDS011;456;53.584;9.968;2022-12-29T15:00:45;2.17;;;1.00;;
938;SDS011;456;53.584;9.968;2022-12-29T15:03:14;0.97;;;0.77;;
938;SDS011;456;53.584;9.968;2022-12-29T15:08:21;1.20;;;0.80;;
938;SDS011;456;53.584;9.968;2022-12-29T15:10:58;1.40;;;0.90;;
938;SDS011;456;53.584;9.968;2022-12-29T15:13:40;1.30;;;0.80;;
938;SDS011;456;53.584;9.968;2022-12-29T15:16:24;3.53;;;0.97;;
938;SDS011;456;53.584;9.968;2022-12-29T15:18:58;1.63;;;1.10;;
938;SDS011;456;53.584;9.968;2022-12-29T15:21:25;1.50;;;0.87;;
938;SDS011;456;53.584;9.968;2022-12-29T15:23:53;2.13;;;1.00;;
938;SDS011;456;53.584;9.968;2022-12-29T15:26:19;0.80;;;0.70;;
938;SDS011;456;53.584;9.968;2022-12-29T15:28:48;3.10;;;0.90;;
938;SDS011;456;53.584;9.968;2022-12-29T15:31:21;2.77;;;1.10;;
938;SDS011;456;53.584;9.968;2022-12-29T15:33:52;1.60;;;0.83;;
938;SDS011;456;53.584;9.968;2022-12-29T15:36:21;1.27;;;0.87;;
938;SDS011;456;53.584;9.968;2022-12-29T15:38:49;1.10;;;0.90;;
938;SDS011;456;53.584;9.968;2022-12-29T15:41:22;1.23;;;0.93;;
938;SDS011;456;53.584;9.968;2022-12-29T15:44:20;3.27;;;1.53;;
938;SDS011;456;53.584;9.968;2022-12-29T15:46:50;1.37;;;1.00;;
938;SDS011;456;53.584;9.968;2022-12-29T15:49:15;1.40;;;1.07;;
938;SDS011;456;53.584;9.968;2022-12-29T15:51:41;0.90;;;0.77;;
938;SDS011;456;53.584;9.968;2022-12-29T15:54:18;1.67;;;1.10;;
938;SDS011;456;53.584;9.968;2022-12-29T15:56:46;1.80;;;1.37;;
938;SDS011;456;53.584;9.968;2022-12-29T15:59:26;1.33;;;1.00;;
938;SDS011;456;53.584;9.968;2022-12-29T16:01:57;2.60;;;0.80;;
938;SDS011;456;53.584;9.968;2022-12-29T16:04:25;3.50;;;1.10;;
938;SDS011;456;53.584;9.968;2022-12-29T16:06:55;1.57;;;1.20;;
938;SDS011;456;53.584;9.968;2022-12-29T16:09:30;1.93;;;0.90;;
938;SDS011;456;53.584;9.968;2022-12-29T16:12:04;1.43;;;1.30;;
938;SDS011;456;53.584;9.968;2022-12-29T16:14:34;2.93;;;1.50;;
938;SDS011;456;53.584;9.968;2022-12-29T16:17:09;2.33;;;1.30;;
938;SDS011;456;53.584;9.968;2022-12-29T16:19:49;2.07;;;1.10;;
938;SDS011;456;53.584;9.968;2022-12-29T16:22:59;3.03;;;1.03;;
938;SDS011;456;53.584;9.968;2022-12-29T16:25:19;2.33;;;1.10;;
938;SDS011;456;53.584;9.968;2022-12-29T16:27:49;1.40;;;1.00;;
938;SDS011;456;53.584;9.968;2022-12-29T16:30:17;1.30;;;0.90;;
938;SDS011;456;53.584;9.968;2022-12-29T16:32:54;2.07;;;0.80;;
938;SDS011;456;53.584;9.968;2022-12-29T16:38:14;1.70;;;1.10;;
938;SDS011;456;53.584;9.968;2022-12-29T16:40:55;2.07;;;1.57;;
938;SDS011;456;53.584;9.968;2022-12-29T16:43:26;1.80;;;1.03;;
938;SDS011;456;53.584;9.968;2022-12-29T16:48:27;2.07;;;1.40;;
938;SDS011;456;53.584;9.968;2022-12-29T16:51:14;1.87;;;1.00;;
938;SDS011;456;53.584;9.968;2022-12-29T16:53:42;2.20;;;1.10;;
938;SDS011;456;53.584;9.968;2022-12-29T16:56:17;0.90;;;0.80;;
938;SDS011;456;53.584;9.968;2022-12-29T16:58:57;1.40;;;1.00;;
938;SDS011;456;53.584;9.968;2022-12-29T17:01:24;3.77;;;1.40;;
938;SDS011;456;53.584;9.968;2022-12-29T17:03:53;2.70;;;1.27;;
938;SDS011;456;53.584;9.968;2022-12-29T17:06:23;1.67;;;1.03;;
938;SDS011;456;53.584;9.968;2022-12-29T17:08:49;1.20;;;1.03;;
938;SDS011;456;53.584;9.968;2022-12-29T17:11:19;3.27;;;1.40;;
938;SDS011;456;53.584;9.968;2022-12-29T17:14:23;1.67;;;1.00;;
938;SDS011;456;53.584;9.968;2022-12-29T17:16:51;2.67;;;1.23;;
938;SDS011;456;53.584;9.968;2022-12-29T17:19:17;2.03;;;1.20;;
938;SDS011;456;53.584;9.968;2022-12-29T17:21:44;3.73;;;1.40;;
938;SDS011;456;53.584;9.968;2022-12-29T17:24:16;2.03;;;1.20;;
938;SDS011;456;53.584;9.968;2022-12-29T17:26:44;1.30;;;1.10;;
938;SDS011;456;53.584;9.968;2022-12-29T17:29:17;1.80;;;1.10;;
938;SDS011;456;53.584;9.968;2022-12-29T17:31:53;1.47;;;1.10;;
938;SDS011;456;53.584;9.968;2022-12-29T17:34:19;1.90;;;1.20;;
938;SDS011;456;53.584;9.968;2022-12-29T17:36:45;1.87;;;1.00;;
938;SDS011;456;53.584;9.968;2022-12-29T17:39:11;1.50;;;1.10;;
938;SDS011;456;53.584;9.968;2022-12-29T17:41:37;2.40;;;1.50;;
938;SDS011;456;53.584;9.968;2022-12-29T17:44:03;2.83;;;1.17;;
938;SDS011;456;53.584;9.968;2022-12-29T17:46:29;1.90;;;1.30;;
938;SDS011;456;53.584;9.968;2022-12-29T17:48:55;2.03;;;1.10;;
938;SDS011;456;53.584;9.968;2022-12-29T17:51:21;1.73;;;1.10;;
938;SDS011;456;53.584;9.968;2022-12-29T17:53:47;1.73;;;1.13;;
938;SDS011;456;53.584;9.968;2022-12-29T17:56:14;2.50;;;1.30;;
938;SDS011;456;53.584;9.968;2022-12-29T17:58:40;1.30;;;0.90;;
938;SDS011;456;53.584;9.968;2022-12-29T18:01:05;3.10;;;1.40;;
938;SDS011;456;53.584;9.968;2022-12-29T18:03:35;2.50;;;1.40;;
938;SDS011;456;53.584;9.968;2022-12-29T18:06:02;1.70;;;1.30;;
938;SDS011;456;53.584;9.968;2022-12-29T18:08:32;1.83;;;1.60;;
938;SDS011;456;53.584;9.968;2022-12-29T18:10:59;3.50;;;1.53;;
938;SDS011;456;53.584;9.968;2022-12-29T18:13:29;1.87;;;1.30;;
938;SDS011;456;53.584;9.968;2022-12-29T18:15:56;2.00;;;1.60;;
938;SDS011;456;53.584;9.968;2022-12-29T18:18:23;2.03;;;1.33;;
938;SDS011;456;53.584;9.968;2022-12-29T18:20:50;2.07;;;1.27;;
938;SDS011;456;53.584;9.968;2022-12-29T18:23:21;1.97;;;1.77;;